This demonstration page uses our WeatherBlox Daily Observations layout. Learn more.

38.89511, -77.03637

Hourly Observations for March 12, 2015

Temp ( °F °C ) Dew Point ( °F °C ) Humidity (%) Winds ( mph kmh ) Pressure ( in mb ) Visibility ( mi km ) Precip ( " mm )
12:52 am 00:52 Clear 48 9 28 -2 46 46 NNW 7 11 30.27 1025 10 16.09344 0 0
1:52 am 01:52 Clear 50 10 28 -2 43 43 NW 10 17 30.27 1025 10 16.09344 0 0
2:52 am 02:52 Mostly Clear 48 9 27 -3 43 43 NW 12 19 30.3 1026 10 16.09344 0 0
3:52 am 03:52 Partly Cloudy 46 8 27 -3 46 46 NW 14 22 30.3 1026 10 16.09344 0 0
4:52 am 04:52 Mostly Clear 46 8 25 -4 43 43 NNW 9 15 30.33 1027 10 16.09344 0 0
5:52 am 05:52 Mostly Clear 46 8 23 -5 40 40 NNW 14 22 30.36 1028 10 16.09344 0 0
6:52 am 06:52 Partly Cloudy 46 8 23 -5 40 40 NNW 10 17 30.39 1029 10 16.09344 0 0
7:52 am 07:52 Partly Cloudy 46 8 25 -4 43 43 NNW 9 15 30.42 1030 10 16.09344 0 0
8:52 am 08:52 Partly Cloudy 48 9 25 -4 40 40 NNW 13 20 30.48 1032 10 16.09344 0 0
9:52 am 09:52 Partly Cloudy 50 10 23 -5 35 35 NNW 13 20 30.5 1033 10 16.09344 0 0
10:52 am 10:52 Mostly Cloudy 52 11 21 -6 30 30 N 13 20 30.53 1034 10 16.09344 0 0
11:52 am 11:52 Mostly Cloudy 54 12 21 -6 28 28 N 14 22 30.53 1034 10 16.09344 0 0
12:52 pm 12:52 Mostly Cloudy 55 13 21 -6 26 26 N 15 24 30.53 1034 10 16.09344 0 0
1:52 pm 13:52 Mostly Cloudy 57 14 21 -6 25 25 N 10 17 30.53 1034 10 16.09344 0 0
2:52 pm 14:52 Partly Cloudy 59 15 21 -6 23 23 N 7 11 30.5 1033 10 16.09344 0 0
3:52 pm 15:52 Partly Cloudy 59 15 25 -4 27 27 N 10 17 30.5 1033 10 16.09344 0 0
4:52 pm 16:52 Sunny 59 15 21 -6 23 23 N 8 13 30.5 1033 10 16.09344 0 0
5:52 pm 17:52 Mostly Cloudy 57 14 23 -5 27 27 N 10 17 30.5 1033 10 16.09344 0 0
6:52 pm 18:52 Mostly Cloudy 54 12 25 -4 33 33 N 6 9 30.53 1034 10 16.09344 0 0
7:52 pm 19:52 Mostly Cloudy 52 11 25 -4 35 35 NE 6 9 30.56 1035 10 16.09344 0 0
8:52 pm 20:52 Mostly Cloudy 52 11 25 -4 35 35 NE 7 11 30.56 1035 10 16.09344 0 0
9:52 pm 21:52 Partly Cloudy 48 9 23 -5 37 37 N 3 6 30.59 1036 10 16.09344 0 0
10:52 pm 22:52 Mostly Cloudy 46 8 19 -7 34 34 SE 3 6 30.59 1036 10 16.09344 0 0
11:52 pm 23:52 Mostly Cloudy 45 7 23 -5 42 42 Calm 30.59 1036 10 16.09344 0 0

Powered by AerisWeather